createdAt,value
2018-09-03T00:01:21.294Z,4.57
2018-09-03T00:03:49.780Z,5.60
2018-09-03T00:06:18.306Z,4.67
2018-09-03T00:08:46.833Z,4.30
2018-09-03T00:11:15.326Z,4.07
2018-09-03T00:13:43.793Z,4.97
2018-09-03T00:16:12.244Z,4.43
2018-09-03T00:18:40.806Z,4.10
2018-09-03T00:21:11.159Z,4.60
2018-09-03T00:23:39.681Z,4.20
2018-09-03T00:26:08.281Z,4.67
2018-09-03T00:28:36.789Z,4.20
2018-09-03T00:31:10.705Z,5.33
2018-09-03T00:33:44.541Z,5.50
2018-09-03T00:36:18.345Z,8.20
2018-09-03T00:38:52.284Z,9.90
2018-09-03T00:41:26.107Z,9.47
2018-09-03T00:44:00.087Z,8.97
2018-09-03T00:46:33.937Z,9.20
2018-09-03T00:49:02.499Z,9.17
2018-09-03T00:51:30.979Z,12.97
2018-09-03T00:53:59.507Z,8.73
2018-09-03T00:56:28.436Z,9.00
2018-09-03T00:58:56.920Z,9.60
2018-09-03T01:01:25.400Z,8.13
2018-09-03T01:03:53.891Z,9.07
2018-09-03T01:06:22.380Z,10.30
2018-09-03T01:08:50.897Z,9.83
2018-09-03T01:11:19.433Z,8.60
2018-09-03T01:13:47.918Z,7.87
2018-09-03T01:16:16.397Z,9.63
2018-09-03T01:18:45.314Z,8.80
2018-09-03T01:21:13.833Z,8.30
2018-09-03T01:23:42.384Z,8.00
2018-09-03T01:26:10.877Z,8.10
2018-09-03T01:28:39.375Z,7.17
2018-09-03T01:31:07.858Z,6.07
2018-09-03T01:33:36.410Z,6.50
2018-09-03T01:36:04.917Z,10.30
2018-09-03T01:38:33.421Z,11.73
2018-09-03T01:41:01.905Z,12.60
2018-09-03T01:43:30.472Z,11.97
2018-09-03T01:46:00.031Z,10.10
2018-09-03T01:48:28.497Z,9.30
2018-09-03T01:50:57.061Z,9.97
2018-09-03T01:53:25.550Z,9.53
2018-09-03T01:55:54.025Z,9.43
2018-09-03T01:58:22.513Z,8.83
2018-09-03T02:00:51.157Z,7.07
2018-09-03T02:03:19.652Z,6.93
2018-09-03T02:05:48.217Z,7.93
2018-09-03T02:08:17.721Z,8.93
2018-09-03T02:10:46.220Z,8.37
2018-09-03T02:13:14.787Z,9.40
2018-09-03T02:15:43.485Z,9.00
2018-09-03T02:18:12.093Z,7.00
2018-09-03T02:20:40.584Z,7.73
2018-09-03T02:23:09.052Z,7.77
2018-09-03T02:25:37.535Z,8.10
2018-09-03T02:28:06.033Z,8.03
2018-09-03T02:30:34.520Z,8.20
2018-09-03T02:33:03.037Z,8.07
2018-09-03T02:35:31.565Z,7.20
2018-09-03T02:38:00.049Z,8.50
2018-09-03T02:40:28.617Z,6.90
2018-09-03T02:42:57.097Z,8.47
2018-09-03T02:45:25.610Z,7.10
2018-09-03T02:47:54.087Z,8.37
2018-09-03T02:50:22.578Z,8.87
2018-09-03T02:52:51.148Z,9.97
2018-09-03T02:55:19.620Z,7.97
2018-09-03T02:57:48.097Z,7.93
2018-09-03T03:00:16.601Z,10.37
2018-09-03T03:02:45.321Z,8.10
2018-09-03T03:05:13.824Z,7.20
2018-09-03T03:07:42.291Z,8.13
2018-09-03T03:10:10.817Z,7.07
2018-09-03T03:12:39.332Z,6.77
2018-09-03T03:15:07.853Z,8.67
2018-09-03T03:17:36.353Z,8.47
2018-09-03T03:20:05.189Z,8.73
2018-09-03T03:22:33.733Z,8.93
2018-09-03T03:25:02.245Z,12.60
2018-09-03T03:27:30.763Z,12.97
2018-09-03T03:29:59.238Z,9.97
2018-09-03T03:32:27.733Z,10.40
2018-09-03T03:34:56.324Z,12.07
2018-09-03T03:37:24.793Z,12.93
2018-09-03T03:39:53.472Z,13.93
2018-09-03T03:42:21.950Z,9.57
2018-09-03T03:44:50.444Z,7.90
2018-09-03T03:47:18.925Z,7.87
2018-09-03T03:49:47.397Z,6.47
2018-09-03T03:52:15.890Z,6.40
2018-09-03T03:54:44.364Z,6.90
2018-09-03T03:57:12.840Z,6.10
2018-09-03T03:59:41.315Z,6.37
2018-09-03T04:02:09.892Z,5.83
2018-09-03T04:04:38.379Z,5.40
2018-09-03T04:07:06.864Z,6.77
2018-09-03T04:09:35.355Z,5.07
2018-09-03T04:12:03.846Z,7.63
2018-09-03T04:14:32.317Z,5.67
2018-09-03T04:17:01.056Z,6.63
2018-09-03T04:19:29.565Z,7.50
2018-09-03T04:21:58.034Z,6.67
2018-09-03T04:24:26.492Z,6.90
2018-09-03T04:26:55.112Z,8.80
2018-09-03T04:29:23.572Z,9.93
2018-09-03T04:31:52.077Z,15.07
2018-09-03T04:34:20.570Z,13.33
2018-09-03T04:36:49.110Z,13.17
2018-09-03T04:39:17.605Z,14.43
2018-09-03T04:41:46.108Z,11.90
2018-09-03T04:44:14.589Z,12.47
2018-09-03T04:46:43.073Z,10.27
2018-09-03T04:49:11.539Z,9.63
2018-09-03T04:51:40.041Z,8.37
2018-09-03T04:54:08.509Z,7.20
2018-09-03T04:56:36.991Z,7.60
2018-09-03T04:59:05.462Z,7.60
2018-09-03T05:01:34.164Z,8.07
2018-09-03T05:04:02.690Z,8.70
2018-09-03T05:06:31.174Z,8.67
2018-09-03T05:08:59.657Z,10.57
2018-09-03T05:11:28.168Z,12.53
2018-09-03T05:13:56.709Z,14.53
2018-09-03T05:16:25.189Z,11.40
2018-09-03T05:18:53.689Z,9.07
2018-09-03T05:21:22.186Z,10.17
2018-09-03T05:23:50.680Z,8.43
2018-09-03T05:26:19.309Z,9.57
2018-09-03T05:28:47.894Z,9.80
2018-09-03T05:31:16.496Z,11.10
2018-09-03T05:33:44.932Z,8.93
2018-09-03T05:36:13.405Z,7.80
2018-09-03T05:38:41.940Z,11.50
2018-09-03T05:41:10.420Z,8.57
2018-09-03T05:43:38.958Z,10.87
2018-09-03T05:46:07.418Z,10.90
2018-09-03T05:48:35.951Z,20.47
2018-09-03T05:51:04.420Z,26.23
2018-09-03T05:53:32.957Z,19.63
2018-09-03T05:56:01.500Z,16.57
2018-09-03T05:58:32.308Z,14.40
2018-09-03T06:01:02.008Z,13.13
2018-09-03T06:03:30.578Z,13.20
2018-09-03T06:05:59.040Z,9.97
2018-09-03T06:08:27.512Z,10.80
2018-09-03T06:10:56.014Z,11.50
2018-09-03T06:13:24.479Z,14.47
2018-09-03T06:15:53.027Z,11.43
2018-09-03T06:18:21.553Z,8.10
2018-09-03T06:20:50.025Z,7.97
2018-09-03T06:23:18.508Z,7.43
2018-09-03T06:25:46.992Z,10.37
2018-09-03T06:28:15.441Z,8.23
2018-09-03T06:30:43.926Z,9.93
2018-09-03T06:33:12.391Z,7.60
2018-09-03T06:35:40.902Z,7.07
2018-09-03T06:41:08.623Z,8.63
2018-09-03T06:43:37.112Z,7.37
2018-09-03T06:46:05.775Z,6.80
2018-09-03T06:48:34.241Z,9.70
2018-09-03T06:51:02.738Z,15.00
2018-09-03T06:53:31.252Z,19.23
2018-09-03T06:55:59.745Z,31.30
2018-09-03T06:58:28.459Z,29.03
2018-09-03T07:00:58.040Z,14.20
2018-09-03T07:03:26.511Z,15.67
2018-09-03T07:05:54.986Z,12.93
2018-09-03T07:08:23.478Z,15.17
2018-09-03T07:10:51.942Z,11.33
2018-09-03T07:13:20.448Z,12.07
2018-09-03T07:15:49.009Z,12.63
2018-09-03T07:18:17.488Z,9.27
2018-09-03T07:20:45.990Z,10.07
2018-09-03T07:23:14.477Z,11.20
2018-09-03T07:25:42.950Z,12.37
2018-09-03T07:28:11.542Z,11.07
2018-09-03T07:30:40.941Z,12.90
2018-09-03T07:33:11.288Z,12.47
2018-09-03T07:35:39.745Z,10.57
2018-09-03T07:38:08.220Z,15.27
2018-09-03T07:40:37.736Z,24.23
2018-09-03T07:43:06.240Z,17.57
2018-09-03T07:45:34.745Z,17.90
2018-09-03T07:48:03.564Z,15.47
2018-09-03T07:50:32.024Z,13.93
2018-09-03T07:53:00.602Z,13.27
2018-09-03T07:55:29.129Z,11.83
2018-09-03T07:57:57.614Z,14.73
2018-09-03T08:00:26.188Z,9.70
2018-09-03T08:02:54.662Z,14.23
2018-09-03T08:05:23.181Z,14.53
2018-09-03T08:07:51.681Z,12.77
2018-09-03T08:10:20.210Z,15.03
2018-09-03T08:12:48.738Z,10.97
2018-09-03T08:15:17.206Z,11.07
2018-09-03T08:17:45.724Z,18.27
2018-09-03T08:20:14.197Z,9.97
2018-09-03T08:22:42.694Z,10.10
2018-09-03T08:25:11.187Z,9.97
2018-09-03T08:27:39.659Z,11.37
2018-09-03T08:30:08.327Z,13.43
2018-09-03T08:32:36.760Z,7.70
2018-09-03T08:35:05.229Z,10.50
2018-09-03T08:37:33.921Z,13.90
2018-09-03T08:40:02.445Z,15.73
2018-09-03T08:42:30.905Z,13.17
2018-09-03T08:45:00.486Z,13.83
2018-09-03T08:47:28.981Z,16.10
2018-09-03T08:49:57.456Z,12.93
2018-09-03T08:52:25.912Z,11.23
2018-09-03T08:54:54.421Z,11.70
2018-09-03T08:57:22.881Z,10.27
2018-09-03T08:59:51.405Z,13.83
2018-09-03T09:02:19.860Z,11.60
2018-09-03T09:04:48.339Z,12.73
2018-09-03T09:07:16.820Z,12.47
2018-09-03T09:09:45.336Z,15.23
2018-09-03T09:12:13.803Z,11.27
2018-09-03T09:14:42.295Z,15.23
2018-09-03T09:17:10.765Z,11.43
2018-09-03T09:19:39.233Z,11.43
2018-09-03T09:22:07.710Z,11.83
2018-09-03T09:24:36.226Z,15.80
2018-09-03T09:27:04.718Z,15.63
2018-09-03T09:29:33.212Z,11.73
2018-09-03T09:32:01.695Z,12.27
2018-09-03T09:34:30.173Z,14.80
2018-09-03T09:36:58.787Z,12.73
2018-09-03T09:39:27.268Z,19.20
2018-09-03T09:41:55.739Z,13.53
2018-09-03T09:44:24.307Z,12.80
2018-09-03T09:46:52.777Z,12.90
2018-09-03T09:49:21.793Z,9.83
2018-09-03T09:51:50.357Z,11.40
2018-09-03T09:54:18.839Z,12.17
2018-09-03T09:56:47.304Z,10.83
2018-09-03T09:59:15.802Z,10.30
2018-09-03T10:01:44.269Z,18.73
2018-09-03T10:04:12.767Z,13.20
2018-09-03T10:06:41.240Z,12.50
2018-09-03T10:09:09.753Z,11.93
2018-09-03T10:11:38.231Z,13.37
2018-09-03T10:14:06.717Z,10.67
2018-09-03T10:16:35.224Z,11.20
2018-09-03T10:19:03.729Z,12.50
2018-09-03T10:21:32.219Z,14.57
2018-09-03T10:24:00.695Z,11.97
2018-09-03T10:26:29.181Z,11.97
2018-09-03T10:28:57.662Z,14.07
2018-09-03T10:31:26.208Z,11.27
2018-09-03T10:33:54.692Z,11.77
2018-09-03T10:36:23.164Z,13.13
2018-09-03T10:38:51.645Z,14.30
2018-09-03T10:41:20.157Z,15.20
2018-09-03T10:43:48.648Z,10.70
2018-09-03T10:46:17.121Z,11.33
2018-09-03T10:48:45.602Z,13.70
2018-09-03T10:51:14.090Z,11.07
2018-09-03T10:53:42.580Z,14.70
2018-09-03T10:56:11.096Z,13.97
2018-09-03T10:58:39.565Z,13.17
2018-09-03T11:01:08.004Z,12.40
2018-09-03T11:03:36.459Z,11.50
2018-09-03T11:06:05.106Z,8.87
2018-09-03T11:08:33.576Z,11.93
2018-09-03T11:11:02.047Z,10.50
2018-09-03T11:13:30.522Z,9.03
2018-09-03T11:15:59.029Z,10.20
2018-09-03T11:18:28.704Z,11.07
2018-09-03T11:20:57.251Z,13.13
2018-09-03T11:23:25.724Z,16.53
2018-09-03T11:25:54.284Z,9.43
2018-09-03T11:28:22.737Z,10.43
2018-09-03T11:30:51.249Z,9.87
2018-09-03T11:33:19.729Z,10.90
2018-09-03T11:35:48.211Z,10.23
2018-09-03T11:38:16.664Z,9.80
2018-09-03T11:40:45.184Z,10.80
2018-09-03T11:43:13.647Z,13.83
2018-09-03T11:45:42.137Z,9.40
2018-09-03T11:48:10.726Z,10.73
2018-09-03T11:50:39.162Z,10.60
2018-09-03T11:53:07.634Z,9.30
2018-09-03T11:55:36.156Z,9.03
2018-09-03T11:58:04.578Z,8.67
2018-09-03T12:00:33.158Z,13.70
2018-09-03T12:03:01.620Z,10.63
2018-09-03T12:05:30.133Z,10.00
2018-09-03T12:07:58.636Z,10.53
2018-09-03T12:10:27.125Z,8.60
2018-09-03T12:12:55.589Z,11.03
2018-09-03T12:15:29.828Z,10.40
2018-09-03T12:17:58.309Z,11.30
2018-09-03T12:20:26.780Z,10.53
2018-09-03T12:22:56.165Z,12.80
2018-09-03T12:25:26.857Z,15.63
2018-09-03T12:27:56.608Z,19.93
2018-09-03T12:30:27.030Z,22.07
2018-09-03T12:32:56.536Z,24.10
2018-09-03T12:35:25.005Z,14.97
2018-09-03T12:37:55.585Z,21.37
2018-09-03T12:40:24.049Z,12.37
2018-09-03T12:42:52.614Z,17.97
2018-09-03T12:45:26.808Z,16.07
2018-09-03T12:47:55.392Z,56.43
2018-09-03T12:50:23.863Z,20.63
2018-09-03T12:52:52.354Z,50.13
2018-09-03T12:55:20.823Z,46.40
2018-09-03T12:57:49.424Z,23.77
2018-09-03T13:00:19.770Z,27.40
2018-09-03T13:02:48.552Z,39.80
2018-09-03T13:05:17.618Z,30.47
2018-09-03T13:07:46.107Z,38.67
2018-09-03T13:10:15.489Z,27.17
2018-09-03T13:12:44.075Z,23.90
2018-09-03T13:15:12.505Z,28.90
2018-09-03T13:17:41.157Z,34.60
2018-09-03T13:20:09.653Z,21.57
2018-09-03T13:22:38.165Z,31.33
2018-09-03T13:25:06.636Z,11.80
2018-09-03T13:27:35.151Z,13.77
2018-09-03T13:30:03.653Z,10.10
2018-09-03T13:32:32.155Z,13.17
2018-09-03T13:35:00.635Z,12.80
2018-09-03T13:37:29.286Z,13.37
2018-09-03T13:39:57.782Z,12.83
2018-09-03T13:42:26.380Z,16.67
2018-09-03T13:44:54.941Z,11.50
2018-09-03T13:47:23.823Z,21.93
2018-09-03T13:49:52.333Z,16.40
2018-09-03T13:52:20.824Z,11.73
2018-09-03T13:54:49.438Z,14.80
2018-09-03T13:57:17.908Z,12.30
2018-09-03T13:59:46.422Z,15.30
2018-09-03T14:02:14.917Z,12.63
2018-09-03T14:04:43.459Z,12.27
2018-09-03T14:07:11.903Z,20.27
2018-09-03T14:09:41.445Z,76.23
2018-09-03T14:12:10.219Z,26.70
2018-09-03T14:14:38.792Z,29.27
2018-09-03T14:17:07.293Z,30.60
2018-09-03T14:19:35.857Z,27.53
2018-09-03T14:22:04.374Z,18.17
2018-09-03T14:24:32.902Z,31.23
2018-09-03T14:27:01.376Z,22.90
2018-09-03T14:29:29.851Z,37.23
2018-09-03T14:31:58.344Z,39.87
2018-09-03T14:34:26.852Z,19.50
2018-09-03T14:36:55.351Z,23.10
2018-09-03T14:39:23.897Z,42.93
2018-09-03T14:41:52.385Z,43.70
2018-09-03T14:44:20.869Z,50.43
2018-09-03T14:46:49.342Z,51.63
2018-09-03T14:49:17.833Z,32.77
2018-09-03T14:51:46.317Z,23.40
2018-09-03T14:54:14.829Z,22.90
2018-09-03T14:56:43.360Z,34.17
2018-09-03T14:59:11.841Z,37.07
2018-09-03T15:01:40.797Z,29.67
2018-09-03T15:04:09.340Z,28.13
2018-09-03T15:06:37.862Z,20.87
2018-09-03T15:09:07.161Z,31.23
2018-09-03T15:11:35.657Z,23.43
2018-09-03T15:14:04.150Z,25.20
2018-09-03T15:16:33.582Z,27.30
2018-09-03T15:19:03.363Z,19.00
2018-09-03T15:21:32.544Z,19.87
2018-09-03T15:24:01.219Z,12.97
2018-09-03T15:26:30.090Z,19.37
2018-09-03T15:28:58.527Z,15.07
2018-09-03T15:31:27.069Z,20.70
2018-09-03T15:33:55.548Z,16.47
2018-09-03T15:36:24.387Z,15.10
2018-09-03T15:38:53.027Z,17.87
2018-09-03T15:41:21.544Z,17.70
2018-09-03T15:43:50.010Z,16.20
2018-09-03T15:46:19.461Z,12.47
2018-09-03T15:48:47.932Z,12.63
2018-09-03T15:51:16.562Z,15.20
2018-09-03T15:53:45.127Z,14.80
2018-09-03T15:56:13.637Z,23.33
2018-09-03T15:58:42.114Z,23.10
2018-09-03T16:01:10.592Z,12.07
2018-09-03T16:03:39.093Z,17.83
2018-09-03T16:06:07.584Z,13.30
2018-09-03T16:08:36.045Z,14.70
2018-09-03T16:11:04.589Z,13.70
2018-09-03T16:13:33.054Z,15.03
2018-09-03T16:16:01.562Z,13.43
2018-09-03T16:18:30.077Z,12.27
2018-09-03T16:20:58.632Z,14.87
2018-09-03T16:23:27.081Z,14.97
2018-09-03T16:25:55.567Z,14.73
2018-09-03T16:28:24.085Z,10.33
2018-09-03T16:30:52.576Z,11.07
2018-09-03T16:33:21.068Z,15.13
2018-09-03T16:35:49.602Z,11.90
2018-09-03T16:38:18.212Z,15.47
2018-09-03T16:40:46.723Z,13.00
2018-09-03T16:43:15.278Z,14.10
2018-09-03T16:45:43.777Z,16.63
2018-09-03T16:48:12.383Z,13.80
2018-09-03T16:50:40.854Z,11.70
2018-09-03T16:53:09.335Z,15.53
2018-09-03T16:55:37.850Z,19.97
2018-09-03T16:58:06.369Z,13.73
2018-09-03T17:00:34.884Z,12.37
2018-09-03T17:03:03.376Z,11.77
2018-09-03T17:05:31.869Z,13.10
2018-09-03T17:08:00.404Z,16.87
2018-09-03T17:10:28.866Z,18.47
2018-09-03T17:12:58.373Z,12.03
2018-09-03T17:15:26.874Z,14.87
2018-09-03T17:17:55.359Z,18.20
2018-09-03T17:20:23.973Z,15.80
2018-09-03T17:22:52.364Z,14.97
2018-09-03T17:25:20.869Z,17.87
2018-09-03T17:27:49.401Z,16.43
2018-09-03T17:30:18.978Z,18.67
2018-09-03T17:32:47.505Z,29.53
2018-09-03T17:35:16.001Z,24.50
2018-09-03T17:37:44.520Z,16.13
2018-09-03T17:40:13.097Z,13.77
2018-09-03T17:42:42.536Z,22.23
2018-09-03T17:45:11.934Z,27.03
2018-09-03T17:47:40.853Z,52.43
2018-09-03T17:50:09.557Z,38.80
2018-09-03T17:52:38.062Z,23.83
2018-09-03T17:55:07.452Z,17.27
2018-09-03T17:57:35.947Z,28.67
2018-09-03T18:00:04.469Z,20.70
2018-09-03T18:02:32.964Z,86.43
2018-09-03T18:05:01.535Z,41.53
2018-09-03T18:07:30.116Z,34.43
2018-09-03T18:09:58.628Z,43.73
2018-09-03T18:12:27.162Z,64.93
2018-09-03T18:14:55.644Z,33.20
2018-09-03T18:17:24.177Z,29.60
2018-09-03T18:19:52.666Z,21.47
2018-09-03T18:22:21.216Z,34.53
2018-09-03T18:24:49.646Z,29.43
2018-09-03T18:27:18.136Z,28.30
2018-09-03T18:29:46.605Z,28.27
2018-09-03T18:32:15.093Z,25.43
2018-09-03T18:34:43.565Z,40.20
2018-09-03T18:37:12.122Z,38.83
2018-09-03T18:39:40.598Z,44.83
2018-09-03T18:42:09.213Z,23.47
2018-09-03T18:44:37.710Z,24.10
2018-09-03T18:47:06.214Z,26.33
2018-09-03T18:49:34.708Z,29.50
2018-09-03T18:52:07.204Z,16.47
2018-09-03T18:54:35.733Z,26.00
2018-09-03T18:57:04.237Z,24.13
2018-09-03T18:59:32.736Z,22.23
2018-09-03T19:02:01.317Z,12.43
2018-09-03T19:04:29.795Z,24.10
2018-09-03T19:06:58.354Z,24.53
2018-09-03T19:09:26.863Z,18.50
2018-09-03T19:11:55.357Z,18.03
2018-09-03T19:14:23.843Z,20.07
2018-09-03T19:16:52.668Z,14.07
2018-09-03T19:19:21.189Z,16.27
2018-09-03T19:21:49.731Z,22.70
2018-09-03T19:24:18.235Z,18.87
2018-09-03T19:26:46.732Z,75.67
2018-09-03T19:29:15.236Z,30.43
2018-09-03T19:31:43.846Z,33.03
2018-09-03T19:34:12.387Z,58.33
2018-09-03T19:36:40.950Z,41.97
2018-09-03T19:39:09.425Z,24.37
2018-09-03T19:41:37.921Z,57.40
2018-09-03T19:44:06.466Z,16.10
2018-09-03T19:46:34.990Z,46.97
2018-09-03T19:49:03.611Z,76.67
2018-09-03T19:51:32.113Z,28.27
2018-09-03T19:54:00.634Z,25.70
2018-09-03T19:56:29.129Z,30.50
2018-09-03T19:58:57.637Z,16.07
2018-09-03T20:01:26.133Z,15.70
2018-09-03T20:03:54.686Z,30.70
2018-09-03T20:06:23.252Z,13.07
2018-09-03T20:08:51.835Z,27.80
2018-09-03T20:11:20.385Z,22.33
2018-09-03T20:13:48.972Z,45.80
2018-09-03T20:16:17.500Z,84.47
2018-09-03T20:18:46.021Z,35.37
2018-09-03T20:21:14.504Z,111.23
2018-09-03T20:23:43.185Z,31.47
2018-09-03T20:26:11.583Z,160.93
2018-09-03T20:28:40.129Z,66.30
2018-09-03T20:31:08.645Z,62.57
2018-09-03T20:33:37.091Z,30.20
2018-09-03T20:36:05.593Z,114.00
2018-09-03T20:38:34.105Z,36.53
2018-09-03T20:41:02.578Z,25.07
2018-09-03T20:43:31.119Z,30.37
2018-09-03T20:45:59.677Z,31.10
2018-09-03T20:48:28.224Z,24.43
2018-09-03T20:50:56.755Z,36.80
2018-09-03T20:53:25.241Z,28.67
2018-09-03T20:55:53.702Z,52.00
2018-09-03T20:58:22.221Z,33.23
2018-09-03T21:00:50.773Z,66.77
2018-09-03T21:03:19.420Z,62.27
2018-09-03T21:05:47.874Z,41.07
2018-09-03T21:08:16.427Z,42.53
2018-09-03T21:10:44.880Z,20.43
2018-09-03T21:13:13.388Z,27.00
2018-09-03T21:15:41.903Z,41.23
2018-09-03T21:18:10.385Z,39.27
2018-09-03T21:20:38.930Z,42.87
2018-09-03T21:23:07.436Z,25.27
2018-09-03T21:25:35.985Z,32.27
2018-09-03T21:28:04.529Z,30.63
2018-09-03T21:30:32.987Z,37.60
2018-09-03T21:33:01.534Z,36.40
2018-09-03T21:35:30.018Z,66.40
2018-09-03T21:37:58.550Z,33.63
2018-09-03T21:40:27.055Z,37.37
2018-09-03T21:42:55.546Z,25.47
2018-09-03T21:45:24.032Z,58.37
2018-09-03T21:47:52.724Z,30.07
2018-09-03T21:50:21.226Z,51.37
2018-09-03T21:52:49.701Z,35.80
2018-09-03T21:55:18.197Z,33.47
2018-09-03T21:57:46.685Z,41.43
2018-09-03T22:00:15.273Z,24.50
2018-09-03T22:02:43.874Z,34.33
2018-09-03T22:05:12.417Z,46.67
2018-09-03T22:07:40.963Z,62.17
2018-09-03T22:10:09.487Z,48.40
2018-09-03T22:12:38.011Z,33.57
2018-09-03T22:15:06.561Z,27.13
2018-09-03T22:17:35.105Z,23.73
2018-09-03T22:20:03.711Z,46.43
2018-09-03T22:22:32.215Z,22.97
2018-09-03T22:25:00.967Z,16.57
2018-09-03T22:27:29.483Z,25.00
2018-09-03T22:29:57.962Z,24.83
2018-09-03T22:32:26.431Z,17.10
2018-09-03T22:34:55.101Z,23.53
2018-09-03T22:37:23.582Z,19.90
2018-09-03T22:39:52.115Z,21.10
2018-09-03T22:42:24.440Z,24.63
2018-09-03T22:44:53.236Z,29.97
2018-09-03T22:47:21.706Z,22.80
2018-09-03T22:49:50.385Z,24.00
2018-09-03T22:52:18.933Z,33.90
2018-09-03T22:54:47.565Z,42.20
2018-09-03T22:57:16.033Z,32.53
2018-09-03T22:59:44.553Z,33.90
2018-09-03T23:02:13.054Z,40.63
2018-09-03T23:04:41.564Z,29.73
2018-09-03T23:07:10.024Z,51.40
2018-09-03T23:09:38.631Z,46.83
2018-09-03T23:12:07.118Z,40.37
2018-09-03T23:14:35.622Z,43.40
2018-09-03T23:17:04.249Z,36.93
2018-09-03T23:19:32.743Z,26.03
2018-09-03T23:22:01.219Z,27.43
2018-09-03T23:24:29.700Z,27.03
2018-09-03T23:26:58.252Z,24.73
2018-09-03T23:29:26.718Z,24.63
2018-09-03T23:31:55.334Z,24.90
2018-09-03T23:34:23.795Z,29.13
2018-09-03T23:36:52.293Z,31.80
2018-09-03T23:39:20.769Z,27.80
2018-09-03T23:41:49.285Z,25.80
2018-09-03T23:44:17.768Z,27.67
2018-09-03T23:46:46.298Z,29.63
2018-09-03T23:49:14.766Z,24.73
2018-09-03T23:51:43.268Z,28.73
2018-09-03T23:54:11.755Z,31.80
2018-09-03T23:56:40.265Z,26.43
2018-09-03T23:59:08.749Z,21.67
